Terminal Aerodrome Forecast
Issued by NWS Charleston, WV

Current Version | Previous Version | Graphics & Text | Print | Product List | Glossary On
Versions: 1 2 3 4 5 6 7 8 9 10 11 12 13 14 15 16 17 18 19 20 21 22
000
FTUS41 KRLX 260246 AAA
TAFPKB
TAF AMD
KPKB 260246Z 2603/2624 21003KT P6SM SCT040
     FM261000 00000KT 5SM BR SCT035
     FM261200 00000KT P6SM SCT035
     FM261400 00000KT P6SM BKN035
     FM261900 19003KT P6SM SHRA VCTS OVC070CB
     FM262100 19003KT 5SM SHRA VCTS OVC035CB
     FM262200 19003KT 6SM SHRA VCTS OVC070CB=

USA.gov is the U.S. government's official web portal to all federal, state and local government web resources and services.